CA-0165 weather

CLOSED Hotchkiss Airport
Alberta, Canada

Public forecast

Using degrees Celsius for public forecast. Weather courtesy of forecast.io.

Closest aviation weather report (METAR) to Hotchkiss Airport

Closest report is Peace River Airport, 81.4 nm (150.7 km) SE. Retrieved 2019/10/24 00:00 UTC (38 minutes ago):

CYPE 240000Z 19004KT 15SM OVC240 01/M01 A3025 RMK CI8 SLP277

Closest aviation forecast (TAF) to Hotchkiss Airport

Closest forecast is Peace River Airport, 81.4 nm (150.7 km) SE. Retrieved 2019-10-24 01:42 UTC (0 seconds ago):

TAF TAF CYPE 240038Z 2401/2413 VRB03KT P6SM OVC240 BECMG 2401/2403 21008KT FM240400 21008KT P6SM SCT040 BKN080 FM241200 23010KT P6SM SCT040 BKN240 RMK NXT FCST BY 240700Z